Time;durP1;ratioP1;P1;durP2;ratioP2;P2;SDS_P1;SDS_P2;PMS_P1;PMS_P2;Temp;Humidity;BMP_temperature;BMP_pressure;BME280_temperature;BME280_humidity;BME280_pressure;Samples;Min_cycle;Max_cycle;Signal;HPM_P1;HPM_P2
2021/09/27 00:01:21;;;;;;;9.57;3.50;;;;;;;17.68;99.43;101175.16;5015339;28;21063;-70
2021/09/27 00:03:49;;;;;;;4.03;2.97;;;;;;;17.67;99.57;101168.88;5016482;28;20683;-70
2021/09/27 00:06:15;;;;;;;6.47;3.87;;;;;;;17.69;99.51;101171.25;5016501;28;20448;-70
2021/09/27 00:08:42;;;;;;;4.27;3.50;;;;;;;17.69;99.18;101166.56;5016155;28;20447;-70
2021/09/27 00:11:13;;;;;;;5.87;4.23;;;;;;;17.66;99.43;101161.75;5016274;28;20459;-70
2021/09/27 00:13:43;;;;;;;5.53;3.63;;;;;;;17.66;99.66;101167.25;5016309;28;20837;-70
2021/09/27 00:16:12;;;;;;;6.20;4.20;;;;;;;17.68;99.29;101164.19;5016257;28;20451;-70
2021/09/27 00:18:39;;;;;;;5.87;4.23;;;;;;;17.68;99.58;101166.91;5016011;28;20454;-69
2021/09/27 00:21:10;;;;;;;6.80;4.03;;;;;;;17.66;99.43;101164.50;5026982;28;20458;-70
2021/09/27 00:23:37;;;;;;;5.40;3.90;;;;;;;17.67;99.37;101162.59;5016439;28;20439;-70
2021/09/27 00:26:05;;;;;;;12.90;4.43;;;;;;;17.65;99.14;101171.13;5016039;28;20439;-70
2021/09/27 00:28:31;;;;;;;4.97;3.90;;;;;;;17.62;97.20;101169.06;5016036;28;20447;-71
2021/09/27 00:30:58;;;;;;;7.73;4.00;;;;;;;17.58;96.58;101173.63;5015968;28;20444;-71
2021/09/27 00:33:26;;;;;;;4.30;3.90;;;;;;;17.55;95.70;101172.31;5015897;28;20480;-71
2021/09/27 00:35:54;;;;;;;7.40;4.70;;;;;;;17.56;96.32;101168.44;5015628;28;20502;-71
2021/09/27 00:38:26;;;;;;;5.37;3.70;;;;;;;17.56;97.46;101167.66;5015824;28;20447;-72
2021/09/27 00:40:56;;;;;;;6.97;4.40;;;;;;;17.58;98.35;101165.41;5015671;28;20440;-71
2021/09/27 00:43:23;;;;;;;6.40;4.33;;;;;;;17.60;98.53;101163.09;5014955;28;20444;-70
2021/09/27 00:45:54;;;;;;;7.07;3.47;;;;;;;17.59;98.99;101173.28;5015533;28;20445;-69
2021/09/27 00:48:21;;;;;;;6.80;4.30;;;;;;;17.61;98.96;101165.50;5013976;28;20436;-69
2021/09/27 00:50:52;;;;;;;5.47;3.67;;;;;;;17.61;98.94;101170.19;5015346;28;20448;-70
2021/09/27 00:53:23;;;;;;;6.40;4.40;;;;;;;17.62;99.00;101172.59;5015275;28;20976;-70
2021/09/27 00:55:50;;;;;;;12.80;4.43;;;;;;;17.64;99.12;101164.03;5015560;28;20439;-70
2021/09/27 00:58:20;;;;;;;8.37;5.03;;;;;;;17.62;99.24;101166.34;5015553;28;20440;-70
2021/09/27 01:00:46;;;;;;;7.40;4.00;;;;;;;17.64;99.49;101161.31;5015420;28;20447;-70
2021/09/27 01:03:13;;;;;;;4.37;3.30;;;;;;;17.67;99.21;101165.31;5015315;28;20475;-70
2021/09/27 01:05:46;;;;;;;7.03;4.10;;;;;;;17.62;99.65;101160.84;5015173;28;20464;-70
2021/09/27 01:08:22;;;;;;;6.83;5.97;;;;;;;17.63;99.33;101162.44;5015345;28;20425;-70
2021/09/27 01:11:08;;;;;;;8.90;4.80;;;;;;;17.66;99.52;101172.72;5015280;28;20435;-70
2021/09/27 01:14:06;;;;;;;6.50;4.23;;;;;;;17.63;99.42;101174.19;5015141;28;20472;-70
2021/09/27 01:16:40;;;;;;;7.97;5.13;;;;;;;17.61;99.64;101170.97;5015227;28;20436;-70
2021/09/27 01:19:30;;;;;;;7.57;4.23;;;;;;;17.57;99.80;101169.25;5015202;28;20530;-70
2021/09/27 01:22:05;;;;;;;6.43;4.37;;;;;;;17.55;99.81;101166.84;5016165;28;20502;-70
2021/09/27 01:25:11;;;;;;;6.73;4.40;;;;;;;17.53;100.00;101163.66;5015044;28;20419;-70
2021/09/27 01:28:01;;;;;;;6.33;3.70;;;;;;;17.53;99.67;101158.19;5014974;28;20432;-70
2021/09/27 01:30:42;;;;;;;10.90;4.40;;;;;;;17.55;100.00;101157.84;5014976;28;20436;-70
2021/09/27 01:33:14;;;;;;;7.13;4.70;;;;;;;17.50;100.00;101161.56;5014739;28;20534;-70
2021/09/27 01:35:49;;;;;;;7.00;4.50;;;;;;;17.50;100.00;101158.84;5014824;28;20435;-70
2021/09/27 01:38:28;;;;;;;9.43;3.30;;;;;;;17.49;100.00;101156.44;5014601;28;20956;-70
2021/09/27 01:41:13;;;;;;;8.43;4.93;;;;;;;17.49;100.00;101161.91;5014685;28;20432;-70
2021/09/27 01:43:47;;;;;;;6.93;3.67;;;;;;;17.46;100.00;101165.31;5014732;28;20435;-70
2021/09/27 01:46:23;;;;;;;7.30;4.97;;;;;;;17.47;100.00;101162.22;5014375;28;20906;-70
2021/09/27 01:48:56;;;;;;;7.33;4.50;;;;;;;17.38;100.00;101173.25;5014626;28;20436;-70
2021/09/27 01:51:28;;;;;;;7.13;4.57;;;;;;;17.35;99.76;101173.09;5014482;28;20468;-69
2021/09/27 01:54:01;;;;;;;7.00;4.50;;;;;;;17.30;98.05;101171.38;5014409;28;20534;-69
2021/09/27 01:56:32;;;;;;;7.60;5.13;;;;;;;17.27;97.45;101173.97;5014531;28;20456;-69
2021/09/27 01:59:06;;;;;;;5.70;3.90;;;;;;;17.24;98.00;101174.63;5014068;28;20447;-69
2021/09/27 02:01:41;;;;;;;6.60;3.93;;;;;;;17.25;99.16;101174.28;5014289;28;20460;-68
2021/09/27 02:04:13;;;;;;;6.00;3.70;;;;;;;17.23;100.00;101186.72;5014373;28;20423;-69
2021/09/27 02:06:43;;;;;;;7.97;4.50;;;;;;;17.25;100.00;101184.44;5014315;28;20420;-69
2021/09/27 02:09:15;;;;;;;5.03;4.07;;;;;;;17.25;100.00;101190.72;5014226;28;20448;-69
2021/09/27 02:11:45;;;;;;;5.33;3.60;;;;;;;17.24;100.00;101186.38;5014122;28;20892;-68
2021/09/27 02:14:15;;;;;;;7.93;4.40;;;;;;;17.22;100.00;101185.94;5014048;28;20534;-69
2021/09/27 02:16:47;;;;;;;8.50;4.90;;;;;;;17.24;100.00;101188.34;5014121;28;20443;-69
2021/09/27 02:19:22;;;;;;;8.40;4.83;;;;;;;17.22;100.00;101188.66;5014074;28;20487;-69
2021/09/27 02:21:55;;;;;;;7.03;4.60;;;;;;;17.17;99.79;101188.03;5013902;28;20479;-69
2021/09/27 02:24:30;;;;;;;6.53;4.20;;;;;;;17.15;99.60;101193.84;5014248;28;20444;-69
2021/09/27 02:26:56;;;;;;;7.60;5.07;;;;;;;17.17;100.00;101188.84;5013956;28;20412;-69
2021/09/27 02:29:23;;;;;;;8.07;5.00;;;;;;;17.21;100.00;101200.72;5013927;28;20452;-69
2021/09/27 02:32:01;;;;;;;5.23;3.90;;;;;;;17.24;100.00;101196.53;5013781;28;20491;-69
2021/09/27 02:34:36;;;;;;;10.93;6.30;;;;;;;17.29;100.00;101202.63;5013454;28;20473;-69
2021/09/27 02:37:09;;;;;;;7.47;4.50;;;;;;;17.37;100.00;101209.19;5013841;28;20428;-68
2021/09/27 02:39:41;;;;;;;7.37;5.27;;;;;;;17.44;100.00;101211.38;5013755;28;20444;-68
2021/09/27 02:42:15;;;;;;;8.03;4.43;;;;;;;17.50;100.00;101212.81;5013703;28;20463;-68
2021/09/27 02:44:42;;;;;;;7.27;5.50;;;;;;;17.49;100.00;101211.22;5013685;28;20429;-69
2021/09/27 02:47:12;;;;;;;9.10;4.70;;;;;;;17.49;100.00;101214.75;5013660;28;20447;-68
2021/09/27 02:49:44;;;;;;;8.60;4.13;;;;;;;17.54;100.00;101213.75;5013259;28;20443;-68
2021/09/27 02:52:13;;;;;;;6.77;4.50;;;;;;;17.58;100.00;101215.50;5013268;28;20463;-68
2021/09/27 02:54:43;;;;;;;10.87;5.07;;;;;;;17.60;100.00;101215.16;5013436;28;20480;-68
2021/09/27 02:57:26;;;;;;;8.03;4.90;;;;;;;17.61;100.00;101220.28;5013943;28;20440;-68
2021/09/27 03:00:03;;;;;;;12.37;5.77;;;;;;;17.64;100.00;101216.09;5013214;28;21021;-69
2021/09/27 03:02:37;;;;;;;8.63;5.07;;;;;;;17.68;99.96;101229.94;5013334;28;20547;-68
2021/09/27 03:05:14;;;;;;;8.80;5.03;;;;;;;17.67;99.59;101222.88;5013478;28;20427;-68
2021/09/27 03:07:55;;;;;;;6.30;4.90;;;;;;;17.65;99.86;101221.25;5013183;28;20431;-68
2021/09/27 03:10:36;;;;;;;9.10;4.80;;;;;;;17.66;99.60;101222.03;5013136;28;20824;-68
2021/09/27 03:13:11;;;;;;;6.67;3.97;;;;;;;17.62;99.92;101221.94;5017450;28;20463;-68
2021/09/27 03:16:06;;;;;;;8.80;4.60;;;;;;;17.56;100.00;101219.69;5017404;28;20483;-68
2021/09/27 03:18:45;;;;;;;14.27;4.37;;;;;;;17.51;100.00;101215.22;5017441;28;20435;-69
2021/09/27 03:21:30;;;;;;;7.40;5.00;;;;;;;17.52;100.00;101222.28;5017110;28;20428;-69
2021/09/27 03:24:16;;;;;;;8.50;4.27;;;;;;;17.50;100.00;101213.63;5017337;28;20444;-70
2021/09/27 03:26:53;;;;;;;10.03;4.63;;;;;;;17.46;100.00;101217.34;5017269;28;20427;-69
2021/09/27 03:29:31;;;;;;;10.80;4.70;;;;;;;17.46;100.00;101214.63;5017259;28;20420;-71
2021/09/27 03:32:05;;;;;;;10.57;4.93;;;;;;;17.35;99.61;101206.78;5017118;28;20459;-71
2021/09/27 03:34:40;;;;;;;6.87;4.03;;;;;;;17.31;98.12;101194.91;5016769;28;21216;-70
2021/09/27 03:37:33;;;;;;;6.67;4.87;;;;;;;17.26;97.34;101191.53;5017106;28;20431;-73
2021/09/27 03:40:12;;;;;;;13.70;4.53;;;;;;;17.22;97.29;101185.94;5011934;28;20460;-71
2021/09/27 03:42:46;;;;;;;7.27;5.00;;;;;;;17.21;98.55;101178.81;5016883;28;20467;-72
2021/09/27 03:45:19;;;;;;;9.00;4.03;;;;;;;17.24;99.71;101180.91;5016952;28;20428;-72
2021/09/27 03:47:53;;;;;;;7.70;4.60;;;;;;;17.22;100.00;101180.47;5016918;28;20428;-72
2021/09/27 03:50:25;;;;;;;9.17;4.63;;;;;;;17.25;100.00;101176.22;5016822;28;20435;-71
2021/09/27 03:53:00;;;;;;;6.23;4.20;;;;;;;17.28;100.00;101181.06;5016758;28;20472;-71
2021/09/27 03:55:34;;;;;;;6.20;4.23;;;;;;;17.32;100.00;101187.47;5016680;28;20490;-71
2021/09/27 03:58:05;;;;;;;7.17;4.53;;;;;;;17.34;100.00;101183.25;5016653;28;20428;-71
2021/09/27 04:00:37;;;;;;;8.30;4.47;;;;;;;17.37;100.00;101182.59;5016277;28;20811;-71
2021/09/27 04:03:10;;;;;;;9.17;5.00;;;;;;;17.37;100.00;101182.59;5016544;28;20470;-71
2021/09/27 04:05:47;;;;;;;9.90;5.33;;;;;;;17.42;100.00;101175.31;5016530;28;20500;-72
2021/09/27 04:08:24;;;;;;;7.60;4.70;;;;;;;17.45;100.00;101180.16;5016551;28;20435;-71
2021/09/27 04:11:05;;;;;;;6.70;3.90;;;;;;;17.46;100.00;101171.59;5016455;28;20438;-71
2021/09/27 04:13:37;;;;;;;8.03;5.07;;;;;;;17.48;100.00;101171.25;5016416;28;20427;-71
2021/09/27 04:16:32;;;;;;;10.10;4.80;;;;;;;17.49;100.00;101167.41;5016320;28;20436;-71
2021/09/27 04:19:03;;;;;;;8.63;5.40;;;;;;;17.51;100.00;101171.38;5016304;28;20440;-71
2021/09/27 04:21:44;;;;;;;4.43;3.17;;;;;;;17.54;100.00;101180.88;5015839;28;20486;-72
2021/09/27 04:24:28;;;;;;;8.97;5.50;;;;;;;17.54;100.00;101172.66;5016160;28;20440;-71
2021/09/27 04:27:08;;;;;;;9.50;5.30;;;;;;;17.53;100.00;101190.22;5016161;28;20467;-71
2021/09/27 04:29:57;;;;;;;6.80;4.30;;;;;;;17.55;100.00;101187.97;5015797;28;20925;-71
2021/09/27 04:32:34;;;;;;;7.93;5.03;;;;;;;17.57;100.00;101196.63;5015651;28;21000;-71
2021/09/27 04:35:13;;;;;;;5.30;4.30;;;;;;;17.55;100.00;101191.50;5015919;28;20468;-71
2021/09/27 04:37:40;;;;;;;8.30;5.30;;;;;;;17.55;100.00;101193.44;5015988;28;20428;-72
2021/09/27 04:40:12;;;;;;;5.30;3.90;;;;;;;17.56;100.00;101189.56;5015910;28;20466;-71
2021/09/27 04:42:57;;;;;;;6.67;4.70;;;;;;;17.57;100.00;101186.47;5015851;28;20471;-71
2021/09/27 04:45:50;;;;;;;10.70;4.70;;;;;;;17.60;100.00;101190.50;5015506;28;20902;-71
2021/09/27 04:48:30;;;;;;;10.60;5.97;;;;;;;17.62;100.00;101207.44;5015712;28;20425;-71
2021/09/27 04:51:09;;;;;;;7.67;4.67;;;;;;;17.58;100.00;101209.22;5015620;28;20428;-71
2021/09/27 04:54:00;;;;;;;4.80;4.00;;;;;;;17.57;98.70;101224.03;5015363;28;20434;-71
2021/09/27 04:56:37;;;;;;;7.00;4.30;;;;;;;17.52;97.07;101221.50;5015653;28;20432;-71
2021/09/27 04:59:15;;;;;;;9.67;4.47;;;;;;;17.54;97.09;101213.75;5015401;28;20859;-71
2021/09/27 05:02:02;;;;;;;11.53;4.10;;;;;;;17.52;97.30;101216.00;5015517;28;20463;-70
2021/09/27 05:04:40;;;;;;;8.00;5.57;;;;;;;17.52;98.65;101216.00;5015147;28;20420;-71
2021/09/27 05:07:48;;;;;;;8.00;4.33;;;;;;;17.53;99.57;101221.19;5015415;28;20454;-70
2021/09/27 05:10:37;;;;;;;7.47;5.00;;;;;;;17.57;100.00;101227.56;5009602;28;20452;-71
2021/09/27 05:13:13;;;;;;;7.87;5.30;;;;;;;17.60;100.00;101232.41;5015199;28;20557;-70
2021/09/27 05:16:00;;;;;;;7.67;4.83;;;;;;;17.57;99.79;101230.31;5015133;28;20468;-71
2021/09/27 05:18:54;;;;;;;7.73;4.90;;;;;;;17.62;99.76;101243.03;5015129;28;20428;-71
2021/09/27 05:21:51;;;;;;;6.57;4.43;;;;;;;17.57;99.99;101240.47;5014832;28;20468;-71
2021/09/27 05:24:41;;;;;;;9.90;4.93;;;;;;;17.58;100.00;101233.88;4982335;28;20445;-71
2021/09/27 05:27:29;;;;;;;9.50;5.30;;;;;;;17.58;100.00;101225.66;5015014;28;20443;-71
2021/09/27 05:30:08;;;;;;;8.90;4.90;;;;;;;17.59;100.00;101232.75;5014989;28;20451;-71
2021/09/27 05:32:47;;;;;;;6.93;4.00;;;;;;;17.59;100.00;101233.53;5014451;28;20820;-71
2021/09/27 05:35:26;;;;;;;7.50;4.87;;;;;;;17.62;100.00;101232.09;5013870;28;20468;-71
2021/09/27 05:38:03;;;;;;;10.80;5.80;;;;;;;17.65;100.00;101220.44;5014847;28;20436;-71
2021/09/27 05:40:33;;;;;;;7.90;4.73;;;;;;;17.67;100.00;101222.88;5014711;28;20428;-71
2021/09/27 05:43:33;;;;;;;7.13;5.20;;;;;;;17.69;100.00;101228.81;5014517;28;20468;-72
2021/09/27 05:46:13;;;;;;;11.07;5.57;;;;;;;17.69;100.00;101226.84;4991927;28;20451;-73
2021/09/27 05:48:46;;;;;;;7.10;4.77;;;;;;;17.72;100.00;101231.69;5014625;28;20430;-72
2021/09/27 05:51:17;;;;;;;7.17;5.00;;;;;;;17.75;100.00;101227.47;5014461;28;20421;-72
2021/09/27 05:53:54;;;;;;;16.60;4.70;;;;;;;17.80;100.00;101233.59;5014581;28;20443;-72
2021/09/27 05:56:28;;;;;;;7.30;4.93;;;;;;;17.85;100.00;101236.13;5014403;28;20467;-72
2021/09/27 05:59:03;;;;;;;9.17;5.83;;;;;;;17.81;100.00;101218.75;5014356;28;20436;-73
2021/09/27 06:01:41;;;;;;;7.10;4.90;;;;;;;17.86;100.00;101215.81;5014323;28;20515;-72
2021/09/27 06:04:21;;;;;;;7.70;4.87;;;;;;;17.91;100.00;101212.06;5014324;28;20438;-72
2021/09/27 06:06:53;;;;;;;7.63;5.20;;;;;;;17.93;100.00;101211.72;5014306;28;20435;-72
2021/09/27 06:09:32;;;;;;;6.80;4.20;;;;;;;17.97;100.00;101210.69;5014252;28;20441;-72
2021/09/27 06:12:05;;;;;;;7.50;4.77;;;;;;;18.00;100.00;101212.78;5013843;28;20470;-72
2021/09/27 06:14:34;;;;;;;7.40;4.80;;;;;;;18.03;100.00;101225.81;5014109;28;20460;-72
2021/09/27 06:17:21;;;;;;;9.97;5.87;;;;;;;18.07;100.00;101217.75;5014029;28;20448;-72
2021/09/27 06:19:52;;;;;;;6.80;4.70;;;;;;;18.07;99.87;101218.53;5013968;28;20435;-72
2021/09/27 06:22:33;;;;;;;6.57;5.20;;;;;;;18.11;99.87;101218.66;5013700;28;20483;-72
2021/09/27 06:25:12;;;;;;;8.27;4.80;;;;;;;18.14;100.00;101220.72;5014028;28;20420;-72
2021/09/27 06:27:49;;;;;;;9.53;6.27;;;;;;;18.20;100.00;101219.38;5014021;28;20428;-72
2021/09/27 06:30:24;;;;;;;9.77;6.10;;;;;;;18.23;100.00;101213.22;5013931;28;20439;-72
2021/09/27 06:33:02;;;;;;;9.57;5.50;;;;;;;18.29;100.00;101211.88;5013851;28;20977;-72
2021/09/27 06:35:32;;;;;;;8.83;5.13;;;;;;;18.35;99.92;101216.00;5014040;28;20472;-71
2021/09/27 06:38:01;;;;;;;9.70;5.70;;;;;;;18.37;99.44;101213.75;5013990;28;20432;-72
2021/09/27 06:40:28;;;;;;;11.10;6.20;;;;;;;18.41;98.89;101220.13;5013216;28;20968;-72
2021/09/27 06:42:54;;;;;;;9.33;4.87;;;;;;;18.48;98.51;101213.31;5013601;28;20478;-70
2021/09/27 06:45:21;;;;;;;7.00;4.73;;;;;;;18.49;98.43;101199.22;5013610;28;20448;-72
2021/09/27 06:47:48;;;;;;;15.37;5.93;;;;;;;18.51;96.84;101190.69;5013439;28;20499;-74
2021/09/27 06:50:16;;;;;;;9.80;5.00;;;;;;;18.50;95.70;101180.81;5013612;28;20447;-71
2021/09/27 06:52:43;;;;;;;6.27;4.30;;;;;;;18.51;95.18;101186.00;5013520;28;20472;-72
2021/09/27 06:55:11;;;;;;;6.17;4.80;;;;;;;18.53;94.90;101188.38;5013397;28;20487;-71
2021/09/27 06:57:38;;;;;;;5.90;4.43;;;;;;;18.54;94.71;101168.03;5013522;28;20435;-72
2021/09/27 07:00:08;;;;;;;8.73;4.20;;;;;;;18.61;95.89;101171.03;5013549;28;20439;-71
2021/09/27 07:02:34;;;;;;;9.33;5.37;;;;;;;18.64;96.40;101176.66;5013140;28;20912;-71
2021/09/27 07:05:01;;;;;;;6.73;4.53;;;;;;;18.69;96.78;101183.88;5013469;28;20541;-71
2021/09/27 07:07:29;;;;;;;11.30;6.07;;;;;;;18.73;96.67;101181.25;5013323;28;20447;-72
2021/09/27 07:09:55;;;;;;;5.53;4.10;;;;;;;18.77;96.91;101179.41;5013326;28;20448;-72
2021/09/27 07:12:22;;;;;;;6.53;4.17;;;;;;;18.80;97.14;101190.50;5013172;28;20471;-72
2021/09/27 07:14:48;;;;;;;12.60;5.93;;;;;;;18.84;96.88;101188.69;5013152;28;20443;-70
2021/09/27 07:17:14;;;;;;;7.30;4.83;;;;;;;18.87;97.05;101182.53;5013063;28;20440;-71
2021/09/27 07:19:41;;;;;;;10.40;5.80;;;;;;;18.92;97.05;101186.19;5013306;28;20444;-71
2021/09/27 07:22:09;;;;;;;7.67;4.80;;;;;;;18.96;96.33;101185.16;5014357;28;20578;-70
2021/09/27 07:24:37;;;;;;;6.50;4.73;;;;;;;19.03;96.18;101195.56;5027447;28;20463;-70
2021/09/27 07:27:04;;;;;;;8.90;5.57;;;;;;;19.07;96.65;101199.22;5032671;28;21006;-69
2021/09/27 07:29:31;;;;;;;8.43;5.50;;;;;;;19.10;96.74;101201.28;5032917;28;20454;-70
2021/09/27 07:31:58;;;;;;;8.37;5.77;;;;;;;19.17;96.06;101198.78;5032880;28;20463;-70
2021/09/27 07:34:24;;;;;;;9.97;5.67;;;;;;;19.22;95.72;101198.53;5032900;28;20466;-70
2021/09/27 07:36:50;;;;;;;11.97;5.57;;;;;;;19.29;95.95;101182.25;5032841;28;20612;-71
2021/09/27 07:39:18;;;;;;;7.47;5.40;;;;;;;19.41;95.71;101192.44;5033037;28;20443;-70
2021/09/27 07:41:46;;;;;;;7.73;5.33;;;;;;;19.52;94.48;101195.50;5032810;28;20477;-70
2021/09/27 07:44:13;;;;;;;9.60;6.30;;;;;;;19.60;94.14;101195.41;5032764;28;20455;-70
2021/09/27 07:46:40;;;;;;;11.80;5.93;;;;;;;19.67;93.76;101194.81;5032491;28;20443;-70
2021/09/27 07:49:06;;;;;;;9.27;5.10;;;;;;;19.75;93.60;101195.84;5032849;28;20451;-70
2021/09/27 07:51:33;;;;;;;6.83;4.97;;;;;;;19.81;92.76;101202.69;5032708;28;20455;-70
2021/09/27 07:53:59;;;;;;;6.57;4.73;;;;;;;19.84;91.92;101200.03;5032779;28;20481;-70
2021/09/27 07:56:26;;;;;;;10.80;6.43;;;;;;;19.91;91.84;101191.19;5032633;28;20483;-70
2021/09/27 07:58:54;;;;;;;9.27;6.10;;;;;;;19.95;91.91;101194.84;5036227;28;20443;-69
2021/09/27 08:01:20;;;;;;;6.83;4.67;;;;;;;19.93;91.48;101197.16;5036326;28;20469;-70
2021/09/27 08:03:47;;;;;;;7.80;5.07;;;;;;;19.91;91.66;101194.72;5036363;28;20449;-70
2021/09/27 08:06:14;;;;;;;8.87;5.87;;;;;;;19.95;92.38;101203.09;5036025;28;20961;-70
2021/09/27 08:08:40;;;;;;;11.30;5.43;;;;;;;19.98;92.63;101216.16;5036253;28;20443;-70
2021/09/27 08:11:07;;;;;;;8.73;5.17;;;;;;;20.05;92.06;101202.59;5036145;28;20521;-70
2021/09/27 08:13:34;;;;;;;12.63;6.47;;;;;;;20.15;91.15;101204.84;5036147;28;20439;-70
2021/09/27 08:16:02;;;;;;;10.63;6.10;;;;;;;20.28;90.38;101207.56;5036072;28;20490;-71
2021/09/27 08:18:29;;;;;;;11.47;6.67;;;;;;;20.33;89.80;101208.09;5036061;28;20447;-70
2021/09/27 08:20:57;;;;;;;9.20;6.17;;;;;;;20.40;88.43;101213.78;5035944;28;20508;-70
2021/09/27 08:23:24;;;;;;;11.13;6.33;;;;;;;20.42;87.74;101214.22;5035644;28;20455;-72
2021/09/27 08:25:51;;;;;;;9.67;5.40;;;;;;;20.47;87.94;101228.88;5035984;28;20434;-71
2021/09/27 08:28:20;;;;;;;10.90;5.40;;;;;;;20.45;87.38;101233.94;5035897;28;20466;-71
2021/09/27 08:30:49;;;;;;;8.20;4.27;;;;;;;20.36;88.26;101237.66;5035897;28;20475;-71
2021/09/27 08:33:19;;;;;;;9.70;4.97;;;;;;;20.35;88.53;101222.28;5035797;28;20462;-71
2021/09/27 08:35:45;;;;;;;7.70;5.10;;;;;;;20.33;88.78;101218.31;5035412;28;20922;-71
2021/09/27 08:38:12;;;;;;;7.63;5.10;;;;;;;20.25;88.78;101217.28;5035731;28;20459;-71
2021/09/27 08:40:55;;;;;;;7.30;5.20;;;;;;;20.22;88.83;101218.00;5035631;28;20447;-71
2021/09/27 08:43:36;;;;;;;6.60;4.43;;;;;;;20.16;88.87;101217.44;5035669;28;20438;-71
2021/09/27 08:46:09;;;;;;;12.53;5.83;;;;;;;20.16;89.53;101235.91;5035637;28;20429;-71
2021/09/27 08:48:41;;;;;;;8.03;5.03;;;;;;;20.16;89.57;101244.16;5035544;28;20443;-71
2021/09/27 08:51:07;;;;;;;7.57;4.20;;;;;;;20.19;89.55;101240.72;5035450;28;20427;-71
2021/09/27 08:53:37;;;;;;;9.63;4.40;;;;;;;20.23;90.19;101225.13;5035438;28;20455;-71
2021/09/27 08:56:28;;;;;;;6.33;4.30;;;;;;;20.26;90.90;101218.88;5035302;28;20495;-71
2021/09/27 08:59:02;;;;;;;10.43;4.40;;;;;;;20.44;90.73;101218.56;5035428;28;20442;-71
2021/09/27 09:01:34;;;;;;;10.17;5.80;;;;;;;20.59;90.15;101226.09;5035211;28;20463;-71
2021/09/27 09:04:07;;;;;;;12.80;5.80;;;;;;;20.62;88.53;101225.38;5035363;28;20454;-71
2021/09/27 09:06:38;;;;;;;12.60;5.17;;;;;;;20.66;88.51;101231.78;5035253;28;20435;-71
2021/09/27 09:09:11;;;;;;;9.53;5.53;;;;;;;20.77;89.93;101218.31;5034123;28;20423;-70
2021/09/27 09:11:42;;;;;;;7.50;5.20;;;;;;;20.81;89.06;101216.44;5034806;28;20976;-71
2021/09/27 09:14:16;;;;;;;7.10;4.60;;;;;;;20.78;87.59;101228.94;5035115;28;20439;-71
2021/09/27 09:16:45;;;;;;;7.80;4.93;;;;;;;20.75;86.91;101228.84;5035145;28;20494;-71
2021/09/27 09:19:17;;;;;;;8.60;5.10;;;;;;;20.73;86.93;101225.66;5035162;28;20938;-71
2021/09/27 09:21:48;;;;;;;7.33;4.83;;;;;;;20.74;87.69;101221.75;5034849;28;20474;-71
2021/09/27 09:24:17;;;;;;;7.57;4.77;;;;;;;20.77;88.13;101221.84;5035037;28;20542;-71
2021/09/27 09:26:47;;;;;;;5.73;4.13;;;;;;;20.82;87.98;101212.53;5034893;28;20446;-71
2021/09/27 09:29:17;;;;;;;6.30;4.13;;;;;;;20.82;88.28;101213.31;5034878;28;20449;-71
2021/09/27 09:31:48;;;;;;;6.97;5.40;;;;;;;20.85;88.68;101218.13;5034977;28;20462;-71
2021/09/27 09:34:30;;;;;;;8.40;4.80;;;;;;;20.80;86.72;101220.31;5034416;28;20927;-71
2021/09/27 09:37:00;;;;;;;5.63;4.33;;;;;;;20.78;87.65;101219.91;5034648;28;20471;-71
2021/09/27 09:39:30;;;;;;;8.20;5.00;;;;;;;20.79;87.09;101224.25;5034273;28;20440;-70
2021/09/27 09:41:59;;;;;;;13.10;5.57;;;;;;;20.72;86.47;101218.53;5034507;28;20513;-70
2021/09/27 09:44:35;;;;;;;7.33;4.80;;;;;;;20.65;86.59;101224.69;5034196;28;20439;-71
2021/09/27 09:47:04;;;;;;;12.13;4.40;;;;;;;20.60;86.04;101224.94;5034495;28;20423;-71
2021/09/27 09:49:50;;;;;;;10.17;5.40;;;;;;;20.60;87.11;101230.44;5034383;28;20451;-71
2021/09/27 09:52:24;;;;;;;8.20;4.80;;;;;;;20.62;87.99;101230.88;5034012;28;20987;-70
2021/09/27 09:54:51;;;;;;;7.57;5.00;;;;;;;20.57;87.07;101233.91;5034336;28;20431;-71
2021/09/27 09:57:25;;;;;;;6.00;4.47;;;;;;;20.57;87.50;101228.41;5034195;28;20486;-71
2021/09/27 10:00:00;;;;;;;8.60;5.27;;;;;;;20.57;87.99;101233.91;5034241;28;20430;-70
2021/09/27 10:02:29;;;;;;;7.20;4.60;;;;;;;20.62;88.34;101237.19;5034098;28;20463;-70
2021/09/27 10:05:04;;;;;;;7.80;5.40;;;;;;;20.71;87.83;101239.78;5033782;28;20964;-70
2021/09/27 10:07:37;;;;;;;9.23;4.87;;;;;;;20.79;88.36;101241.56;5034036;28;20431;-71
2021/09/27 10:10:08;;;;;;;10.07;6.00;;;;;;;20.84;87.36;101237.75;5034058;28;20427;-71
2021/09/27 10:12:47;;;;;;;9.40;5.60;;;;;;;20.94;87.28;101233.66;5033944;28;20532;-70
2021/09/27 10:15:17;;;;;;;9.50;4.33;;;;;;;21.05;86.93;101232.78;5034071;28;20441;-71
2021/09/27 10:17:43;;;;;;;6.63;4.50;;;;;;;21.12;86.96;101226.66;5033580;28;20864;-70
2021/09/27 10:20:16;;;;;;;19.47;6.27;;;;;;;21.19;86.83;101237.03;5033725;28;20447;-70
2021/09/27 10:22:53;;;;;;;8.40;5.43;;;;;;;21.18;86.81;101236.22;5033313;28;21109;-71
2021/09/27 10:25:32;;;;;;;8.03;4.97;;;;;;;21.24;86.91;101229.28;5033891;28;20861;-70
2021/09/27 10:28:00;;;;;;;6.70;4.47;;;;;;;21.45;86.49;101231.78;5033742;28;20430;-71
2021/09/27 10:30:36;;;;;;;8.77;4.53;;;;;;;21.70;85.73;101228.78;5033697;28;20438;-71
2021/09/27 10:33:10;;;;;;;13.20;5.23;;;;;;;21.92;84.93;101225.31;5033680;28;20463;-71
2021/09/27 10:35:46;;;;;;;12.37;4.90;;;;;;;22.09;84.74;101226.81;5033428;28;20878;-71
2021/09/27 10:38:17;;;;;;;7.77;5.20;;;;;;;22.17;82.59;101220.31;5033787;28;20449;-71
2021/09/27 10:40:47;;;;;;;9.33;5.90;;;;;;;22.10;81.39;101220.16;5033390;28;20846;-71
2021/09/27 10:43:18;;;;;;;11.57;5.47;;;;;;;22.08;82.31;101226.03;5033152;28;20980;-71
2021/09/27 10:45:50;;;;;;;7.13;4.80;;;;;;;22.09;82.38;101224.06;5033494;28;20443;-71
2021/09/27 10:48:19;;;;;;;8.87;4.57;;;;;;;22.25;82.03;101219.28;5033479;28;20427;-71
2021/09/27 10:50:52;;;;;;;4.87;3.53;;;;;;;22.50;82.29;101217.00;5033447;28;20454;-71
2021/09/27 10:53:26;;;;;;;6.77;4.03;;;;;;;22.71;81.32;101211.06;5033303;28;20498;-71
2021/09/27 10:56:02;;;;;;;11.50;5.60;;;;;;;22.78;79.50;101219.47;5033357;28;20433;-70
2021/09/27 10:58:36;;;;;;;7.87;4.77;;;;;;;22.89;79.80;101211.38;5033575;28;20423;-71
2021/09/27 11:01:05;;;;;;;6.37;4.27;;;;;;;23.01;79.70;101216.72;5033322;28;20427;-71
2021/09/27 11:03:38;;;;;;;6.17;4.10;;;;;;;23.16;78.34;101215.78;5033340;28;20439;-71
2021/09/27 11:06:29;;;;;;;8.17;4.20;;;;;;;23.19;77.09;101218.97;5033031;28;20885;-71
2021/09/27 11:09:02;;;;;;;7.27;4.87;;;;;;;23.11;76.27;101212.53;5033238;28;20457;-70
2021/09/27 11:11:45;;;;;;;5.23;4.03;;;;;;;23.02;76.33;101204.50;5033098;28;20466;-70
2021/09/27 11:14:22;;;;;;;5.67;4.00;;;;;;;22.97;76.94;101207.56;5033150;28;20434;-70
2021/09/27 11:16:57;;;;;;;7.50;4.10;;;;;;;22.83;77.24;101210.06;5033083;28;20467;-70
2021/09/27 11:19:35;;;;;;;7.10;4.47;;;;;;;22.81;78.01;101213.22;5032972;28;20441;-70
2021/09/27 11:22:35;;;;;;;6.33;4.43;;;;;;;22.78;78.10;101211.19;5032430;28;20485;-70
2021/09/27 11:25:14;;;;;;;6.10;4.30;;;;;;;22.80;78.60;101208.84;5032235;28;20443;-70
2021/09/27 11:27:41;;;;;;;6.47;4.37;;;;;;;22.84;78.37;101214.41;5032110;28;20450;-70
2021/09/27 11:30:37;;;;;;;6.20;4.47;;;;;;;22.80;78.01;101214.38;5032139;28;20454;-70
2021/09/27 11:33:17;;;;;;;5.33;4.43;;;;;;;22.61;77.58;101211.66;5034137;28;20461;-70
2021/09/27 11:35:45;;;;;;;7.47;5.00;;;;;;;22.50;78.81;101208.72;5035212;28;20905;-70
2021/09/27 11:38:30;;;;;;;6.07;3.93;;;;;;;22.50;79.98;101210.69;5035218;28;20483;-70
2021/09/27 11:41:23;;;;;;;5.63;3.80;;;;;;;22.52;80.51;101211.09;5035441;28;20438;-70
2021/09/27 11:43:59;;;;;;;6.50;4.50;;;;;;;22.54;79.80;101212.34;5035228;28;20898;-70
2021/09/27 11:46:33;;;;;;;13.97;4.53;;;;;;;22.50;79.61;101211.47;5035463;28;20434;-70
2021/09/27 11:49:23;;;;;;;7.33;4.00;;;;;;;22.39;79.56;101218.75;5034840;28;20489;-70
2021/09/27 11:52:04;;;;;;;8.90;4.50;;;;;;;22.29;80.46;101213.84;5035060;28;20463;-70
2021/09/27 11:54:42;;;;;;;5.37;3.70;;;;;;;22.25;81.67;101204.69;5035353;28;20792;-71